createdAt,value
2023-03-21T00:01:07.492Z,76.56
2023-03-21T00:03:36.432Z,76.83
2023-03-21T00:06:09.267Z,76.94
2023-03-21T00:08:39.865Z,76.88
2023-03-21T00:11:10.714Z,77.55
2023-03-21T00:13:42.089Z,77.34
2023-03-21T00:16:21.391Z,77.61
2023-03-21T00:18:58.050Z,77.37
2023-03-21T00:22:03.607Z,77.29
2023-03-21T00:24:22.604Z,77.49
2023-03-21T00:26:51.555Z,77.39
2023-03-21T00:29:20.584Z,77.77
2023-03-21T00:31:49.712Z,77.73
2023-03-21T00:34:26.719Z,77.63
2023-03-21T00:37:06.974Z,77.66
2023-03-21T00:39:36.154Z,77.76
2023-03-21T00:42:05.593Z,77.98
2023-03-21T00:44:36.566Z,78.23
2023-03-21T00:47:07.755Z,78.29
2023-03-21T00:49:38.202Z,77.51
2023-03-21T00:52:20.136Z,77.73
2023-03-21T00:54:53.553Z,78.14
2023-03-21T00:57:37.553Z,77.88
2023-03-21T01:00:10.214Z,77.96
2023-03-21T01:03:02.559Z,77.56
2023-03-21T01:05:53.662Z,77.60
2023-03-21T01:08:28.211Z,77.22
2023-03-21T01:11:04.194Z,77.33
2023-03-21T01:13:36.291Z,77.28
2023-03-21T01:16:08.170Z,77.79
2023-03-21T01:18:39.507Z,77.87
2023-03-21T01:21:11.301Z,77.54
2023-03-21T01:23:42.153Z,77.92
2023-03-21T01:26:12.711Z,78.11
2023-03-21T01:28:43.357Z,78.30
2023-03-21T01:31:24.331Z,78.37
2023-03-21T01:33:53.307Z,78.64
2023-03-21T01:36:25.537Z,78.44
2023-03-21T01:38:55.217Z,78.54
2023-03-21T01:41:42.048Z,78.11
2023-03-21T01:44:17.012Z,78.04
2023-03-21T01:46:57.385Z,77.82
2023-03-21T01:49:38.939Z,77.14
2023-03-21T01:52:20.986Z,77.84
2023-03-21T01:54:57.565Z,78.12
2023-03-21T01:57:40.396Z,78.07
2023-03-21T02:00:15.591Z,77.65
2023-03-21T02:02:52.281Z,78.04
2023-03-21T02:05:28.423Z,78.53
2023-03-21T02:07:57.690Z,78.47
2023-03-21T02:10:27.344Z,78.65
2023-03-21T02:13:07.723Z,78.73
2023-03-21T02:15:38.596Z,79.00
2023-03-21T02:18:15.557Z,78.53
2023-03-21T02:21:10.536Z,78.16
2023-03-21T02:23:58.696Z,78.13
2023-03-21T02:26:57.962Z,78.17
2023-03-21T02:29:55.424Z,77.91
2023-03-21T02:32:38.096Z,77.84
2023-03-21T02:35:25.321Z,77.41
2023-03-21T02:38:00.761Z,77.72
2023-03-21T02:40:36.773Z,77.41
2023-03-21T02:43:22.598Z,77.82
2023-03-21T02:45:57.336Z,78.53
2023-03-21T02:48:44.834Z,78.14
2023-03-21T02:51:23.264Z,78.36
2023-03-21T02:54:23.772Z,78.51
2023-03-21T02:56:50.117Z,78.30
2023-03-21T02:59:21.471Z,78.35
2023-03-21T03:01:52.721Z,78.62
2023-03-21T03:04:23.868Z,78.45
2023-03-21T03:07:08.598Z,78.60
2023-03-21T03:09:49.242Z,78.50
2023-03-21T03:12:28.459Z,78.23
2023-03-21T03:15:06.168Z,78.13
2023-03-21T03:17:45.772Z,78.15
2023-03-21T03:20:24.737Z,78.02
2023-03-21T03:23:00.733Z,78.82
2023-03-21T03:25:43.074Z,78.71
2023-03-21T03:28:15.445Z,78.00
2023-03-21T03:31:00.917Z,78.29
2023-03-21T03:33:38.628Z,78.45
2023-03-21T03:36:28.370Z,78.16
2023-03-21T03:39:00.855Z,78.31
2023-03-21T03:41:33.160Z,78.55
2023-03-21T03:44:15.283Z,78.82
2023-03-21T03:46:51.886Z,78.95
2023-03-21T03:49:25.604Z,78.79
2023-03-21T03:51:59.706Z,78.70
2023-03-21T03:54:33.785Z,78.61
2023-03-21T03:57:03.098Z,78.68
2023-03-21T03:59:33.924Z,78.46
2023-03-21T04:02:03.208Z,78.70
2023-03-21T04:04:32.103Z,79.00
2023-03-21T04:07:03.150Z,78.81
2023-03-21T04:09:43.612Z,78.67
2023-03-21T04:12:12.984Z,78.27
2023-03-21T04:14:47.196Z,78.54
2023-03-21T04:17:16.978Z,78.95
2023-03-21T04:19:46.488Z,78.67
2023-03-21T04:22:16.780Z,78.80
2023-03-21T04:24:45.742Z,79.01
2023-03-21T04:27:14.662Z,79.50
2023-03-21T04:29:53.150Z,79.27
2023-03-21T04:32:35.855Z,78.95
2023-03-21T04:35:21.095Z,78.30
2023-03-21T04:38:02.983Z,78.36
2023-03-21T04:40:32.006Z,78.34
2023-03-21T04:43:01.415Z,78.44
2023-03-21T04:45:30.567Z,79.19
2023-03-21T04:47:59.559Z,78.65
2023-03-21T04:50:28.665Z,78.87
2023-03-21T04:52:57.562Z,78.91
2023-03-21T04:55:29.114Z,78.45
2023-03-21T04:57:58.178Z,78.44
2023-03-21T05:00:27.227Z,78.95
2023-03-21T05:02:57.377Z,79.48
2023-03-21T05:05:26.909Z,79.35
2023-03-21T05:07:55.917Z,79.60
2023-03-21T05:10:25.026Z,79.15
2023-03-21T05:12:54.024Z,79.30
2023-03-21T05:15:23.183Z,79.61
2023-03-21T05:17:52.353Z,79.43
2023-03-21T05:20:21.511Z,79.51
2023-03-21T05:22:51.544Z,79.50
2023-03-21T05:25:20.871Z,79.92
2023-03-21T05:27:53.723Z,80.07
2023-03-21T05:30:23.015Z,80.34
2023-03-21T05:32:52.126Z,80.40
2023-03-21T05:35:21.296Z,79.74
2023-03-21T05:37:50.246Z,80.30
2023-03-21T05:40:19.438Z,79.87
2023-03-21T05:42:48.629Z,79.99
2023-03-21T05:45:17.757Z,80.48
2023-03-21T05:47:46.804Z,80.91
2023-03-21T05:50:15.704Z,80.04
2023-03-21T05:52:44.637Z,80.09
2023-03-21T05:55:13.461Z,80.00
2023-03-21T05:57:42.498Z,80.04
2023-03-21T06:00:13.918Z,79.89
2023-03-21T06:02:43.049Z,80.11
2023-03-21T06:05:12.548Z,80.09
2023-03-21T06:07:41.433Z,80.03
2023-03-21T06:10:12.360Z,80.60
2023-03-21T06:12:42.729Z,80.17
2023-03-21T06:15:13.456Z,80.62
2023-03-21T06:17:42.477Z,80.57
2023-03-21T06:20:13.400Z,80.58
2023-03-21T06:22:42.558Z,80.40
2023-03-21T06:25:11.767Z,80.60
2023-03-21T06:27:40.955Z,80.68
2023-03-21T06:30:12.534Z,80.42
2023-03-21T06:32:41.606Z,79.90
2023-03-21T06:35:11.181Z,80.09
2023-03-21T06:37:40.364Z,80.31
2023-03-21T06:40:11.657Z,80.00
2023-03-21T06:42:40.833Z,80.30
2023-03-21T06:45:11.434Z,80.39
2023-03-21T06:47:40.567Z,80.63
2023-03-21T06:50:11.761Z,80.84
2023-03-21T06:52:40.656Z,80.81
2023-03-21T06:55:10.812Z,80.93
2023-03-21T06:57:39.810Z,80.64
2023-03-21T07:00:12.835Z,80.87
2023-03-21T07:02:41.748Z,81.14
2023-03-21T07:05:11.467Z,80.48
2023-03-21T07:07:40.793Z,80.20
2023-03-21T07:10:12.028Z,80.72
2023-03-21T07:12:40.927Z,80.61
2023-03-21T07:15:12.023Z,80.94
2023-03-21T07:17:41.066Z,81.06
2023-03-21T07:20:13.089Z,80.72
2023-03-21T07:22:42.143Z,80.31
2023-03-21T07:25:12.141Z,80.37
2023-03-21T07:27:42.094Z,80.54
2023-03-21T07:30:13.586Z,80.54
2023-03-21T07:32:42.938Z,80.21
2023-03-21T07:35:15.730Z,80.26
2023-03-21T07:37:45.381Z,80.36
2023-03-21T07:40:15.984Z,80.25
2023-03-21T07:42:45.011Z,80.94
2023-03-21T07:45:15.543Z,80.89
2023-03-21T07:47:44.878Z,80.71
2023-03-21T07:50:14.017Z,80.71
2023-03-21T07:52:43.143Z,80.69
2023-03-21T07:55:12.750Z,81.14
2023-03-21T07:57:41.780Z,80.95
2023-03-21T08:00:13.561Z,81.10
2023-03-21T08:02:42.627Z,81.69
2023-03-21T08:05:11.976Z,81.00
2023-03-21T08:07:40.954Z,80.64
2023-03-21T08:10:12.472Z,80.61
2023-03-21T08:12:41.635Z,80.73
2023-03-21T08:15:12.815Z,80.93
2023-03-21T08:17:45.206Z,80.65
2023-03-21T08:20:16.666Z,80.81
2023-03-21T08:22:45.705Z,80.67
2023-03-21T08:25:17.512Z,80.06
2023-03-21T08:27:48.026Z,80.45
2023-03-21T08:30:19.779Z,80.42
2023-03-21T08:32:49.065Z,80.34
2023-03-21T08:35:20.036Z,80.56
2023-03-21T08:37:49.235Z,80.22
2023-03-21T08:40:20.316Z,80.14
2023-03-21T08:42:49.324Z,79.88
2023-03-21T08:45:19.151Z,79.94
2023-03-21T08:47:48.288Z,80.45
2023-03-21T08:50:19.751Z,80.38
2023-03-21T08:52:49.562Z,80.14
2023-03-21T08:55:19.781Z,80.31
2023-03-21T08:57:48.988Z,80.50
2023-03-21T09:00:20.263Z,80.89
2023-03-21T09:02:52.274Z,80.99
2023-03-21T09:05:22.580Z,80.84
2023-03-21T09:07:52.531Z,80.40
2023-03-21T09:10:23.559Z,80.38
2023-03-21T09:12:54.528Z,80.25
2023-03-21T09:15:24.693Z,80.35
2023-03-21T09:17:55.652Z,80.14
2023-03-21T09:20:30.156Z,80.73
2023-03-21T09:22:59.601Z,80.69
2023-03-21T09:25:30.652Z,80.28
2023-03-21T09:27:59.947Z,80.10
2023-03-21T09:30:29.852Z,79.81
2023-03-21T09:33:00.450Z,80.44
2023-03-21T09:35:30.640Z,80.53
2023-03-21T09:38:00.216Z,80.37
2023-03-21T09:40:47.006Z,80.39
2023-03-21T09:43:32.816Z,80.21
2023-03-21T09:46:09.468Z,80.40
2023-03-21T09:48:54.381Z,80.36
2023-03-21T09:51:29.877Z,80.18
2023-03-21T09:54:04.782Z,80.47
2023-03-21T09:56:34.751Z,80.28
2023-03-21T09:59:06.835Z,80.24
2023-03-21T10:01:41.809Z,80.17
2023-03-21T10:04:16.469Z,80.30
2023-03-21T10:06:46.259Z,80.14
2023-03-21T10:09:21.250Z,80.18
2023-03-21T10:11:54.507Z,79.77
2023-03-21T10:14:29.887Z,79.79
2023-03-21T10:17:01.485Z,79.45
2023-03-21T10:19:30.756Z,79.19
2023-03-21T10:22:02.678Z,79.64
2023-03-21T10:24:35.314Z,79.71
2023-03-21T10:27:05.505Z,79.47
2023-03-21T10:29:42.124Z,79.27
2023-03-21T10:32:13.759Z,79.74
2023-03-21T10:34:45.793Z,79.72
2023-03-21T10:37:16.974Z,80.34
2023-03-21T10:39:49.326Z,80.15
2023-03-21T10:42:23.493Z,80.20
2023-03-21T10:44:57.002Z,80.20
2023-03-21T10:47:28.183Z,80.27
2023-03-21T10:50:10.093Z,79.93
2023-03-21T10:52:45.596Z,79.37
2023-03-21T10:55:23.205Z,79.18
2023-03-21T10:57:59.785Z,79.05
2023-03-21T11:00:36.266Z,78.77
2023-03-21T11:03:07.041Z,78.33
2023-03-21T11:05:39.028Z,78.33
2023-03-21T11:08:13.212Z,78.43
2023-03-21T11:10:54.490Z,78.33
2023-03-21T11:13:33.094Z,78.32
2023-03-21T11:16:08.516Z,78.16
2023-03-21T11:18:42.406Z,78.04
2023-03-21T11:21:14.474Z,77.54
2023-03-21T11:23:47.585Z,77.26
2023-03-21T11:26:23.872Z,77.39
2023-03-21T11:28:54.194Z,77.73
2023-03-21T11:31:38.288Z,77.69
2023-03-21T11:34:09.838Z,77.56
2023-03-21T11:36:39.600Z,78.01
2023-03-21T11:39:33.216Z,77.93
2023-03-21T11:42:02.637Z,78.10
2023-03-21T11:44:35.282Z,78.60
2023-03-21T11:47:04.394Z,78.97
2023-03-21T11:49:33.416Z,78.89
2023-03-21T11:52:21.337Z,78.40
2023-03-21T11:55:23.584Z,78.50
2023-03-21T11:58:13.952Z,78.25
2023-03-21T12:00:54.363Z,78.02
2023-03-21T12:03:47.420Z,77.93
2023-03-21T12:06:25.557Z,77.60
2023-03-21T12:09:06.233Z,77.54
2023-03-21T12:11:49.070Z,77.69
2023-03-21T12:14:28.065Z,77.80
2023-03-21T12:17:10.768Z,77.96
2023-03-21T12:20:01.616Z,77.95
2023-03-21T12:22:39.962Z,77.26
2023-03-21T12:25:14.057Z,77.04
2023-03-21T12:27:52.166Z,77.08
2023-03-21T12:30:39.539Z,76.79
2023-03-21T12:33:25.134Z,76.69
2023-03-21T12:36:10.741Z,76.33
2023-03-21T12:38:44.503Z,76.10
2023-03-21T12:41:27.112Z,75.98
2023-03-21T12:44:03.188Z,76.04
2023-03-21T12:46:36.780Z,75.60
2023-03-21T12:49:14.331Z,75.67
2023-03-21T12:51:47.862Z,75.67
2023-03-21T12:54:25.671Z,74.82
2023-03-21T12:56:59.571Z,74.12
2023-03-21T12:59:36.621Z,74.30
2023-03-21T13:02:19.041Z,74.75
2023-03-21T13:04:59.497Z,75.37
2023-03-21T13:07:33.264Z,75.76
2023-03-21T13:10:05.182Z,75.56
2023-03-21T13:12:48.761Z,76.26
2023-03-21T13:15:44.482Z,75.70
2023-03-21T13:18:21.194Z,75.74
2023-03-21T13:20:53.833Z,76.05
2023-03-21T13:23:25.501Z,76.15
2023-03-21T13:25:57.920Z,75.78
2023-03-21T13:28:31.665Z,75.82
2023-03-21T13:31:21.827Z,76.03
2023-03-21T13:33:53.537Z,75.35
2023-03-21T13:36:26.928Z,75.43
2023-03-21T13:39:01.818Z,75.54
2023-03-21T13:41:35.466Z,75.55
2023-03-21T13:44:23.463Z,75.51
2023-03-21T13:47:02.497Z,75.25
2023-03-21T13:49:34.872Z,74.76
2023-03-21T13:52:27.329Z,74.22
2023-03-21T13:54:57.371Z,74.01
2023-03-21T13:57:39.507Z,73.46
2023-03-21T14:00:29.429Z,72.44
2023-03-21T14:03:05.982Z,72.57
2023-03-21T14:05:36.825Z,72.07
2023-03-21T14:08:24.752Z,72.34
2023-03-21T14:11:06.727Z,72.07
2023-03-21T14:13:48.343Z,71.72
2023-03-21T14:16:21.966Z,71.96
2023-03-21T14:18:56.019Z,70.84
2023-03-21T14:21:29.073Z,70.12
2023-03-21T14:24:02.742Z,69.72
2023-03-21T14:26:34.657Z,70.09
2023-03-21T14:29:09.583Z,70.32
2023-03-21T14:31:47.430Z,69.86
2023-03-21T14:34:17.990Z,69.41
2023-03-21T14:36:56.893Z,69.95
2023-03-21T14:39:30.203Z,69.14
2023-03-21T14:42:05.560Z,68.76
2023-03-21T14:44:53.990Z,68.88
2023-03-21T14:47:27.066Z,69.16
2023-03-21T14:49:56.714Z,68.62
2023-03-21T14:52:30.751Z,67.84
2023-03-21T14:55:01.936Z,67.98
2023-03-21T14:57:33.459Z,68.23
2023-03-21T15:00:11.930Z,67.91
2023-03-21T15:02:43.507Z,67.98
2023-03-21T15:05:19.749Z,67.54
2023-03-21T15:07:57.188Z,67.92
2023-03-21T15:10:30.221Z,67.79
2023-03-21T15:13:01.830Z,67.93
2023-03-21T15:15:32.340Z,68.12
2023-03-21T15:18:07.881Z,67.99
2023-03-21T15:20:39.916Z,68.01
2023-03-21T15:23:15.690Z,67.90
2023-03-21T15:25:45.691Z,67.53
2023-03-21T15:28:17.006Z,67.60
2023-03-21T15:30:51.431Z,67.35
2023-03-21T15:33:21.327Z,67.31
2023-03-21T15:35:55.103Z,67.13
2023-03-21T15:38:30.225Z,67.65
2023-03-21T15:41:25.951Z,67.88
2023-03-21T15:44:05.466Z,68.01
2023-03-21T15:46:42.391Z,68.34
2023-03-21T15:49:24.885Z,68.36
2023-03-21T15:51:57.251Z,68.36
2023-03-21T15:54:29.756Z,68.11
2023-03-21T15:57:04.138Z,68.13
2023-03-21T15:59:36.498Z,68.32
2023-03-21T16:02:11.321Z,68.43
2023-03-21T16:04:58.397Z,68.29
2023-03-21T16:07:27.981Z,68.26
2023-03-21T16:10:01.723Z,68.40
2023-03-21T16:12:30.772Z,68.55
2023-03-21T16:14:59.646Z,68.70
2023-03-21T16:17:36.308Z,68.73
2023-03-21T16:20:14.069Z,68.73
2023-03-21T16:22:43.108Z,68.56
2023-03-21T16:25:12.338Z,68.60
2023-03-21T16:27:42.141Z,68.77
2023-03-21T16:30:15.188Z,69.16
2023-03-21T16:32:44.028Z,68.83
2023-03-21T16:35:13.583Z,68.94
2023-03-21T16:37:43.062Z,69.29
2023-03-21T16:40:23.270Z,69.41
2023-03-21T16:42:52.300Z,69.31
2023-03-21T16:45:21.380Z,69.06
2023-03-21T16:47:51.375Z,69.24
2023-03-21T16:50:31.224Z,69.77
2023-03-21T16:53:00.773Z,69.99
2023-03-21T16:55:32.650Z,69.53
2023-03-21T16:58:02.551Z,69.86
2023-03-21T17:00:32.543Z,69.79
2023-03-21T17:03:03.349Z,69.85
2023-03-21T17:05:32.435Z,70.18
2023-03-21T17:08:02.597Z,70.15
2023-03-21T17:10:34.163Z,69.76
2023-03-21T17:13:03.537Z,69.91
2023-03-21T17:15:33.003Z,69.99
2023-03-21T17:18:02.287Z,70.19
2023-03-21T17:20:33.909Z,70.56
2023-03-21T17:23:03.184Z,70.56
2023-03-21T17:25:32.474Z,70.78
2023-03-21T17:28:02.205Z,70.41
2023-03-21T17:30:37.444Z,70.56
2023-03-21T17:33:07.728Z,70.91
2023-03-21T17:35:38.505Z,70.71
2023-03-21T17:38:12.947Z,70.86
2023-03-21T17:40:43.068Z,70.72
2023-03-21T17:43:17.840Z,71.09
2023-03-21T17:45:49.610Z,70.60
2023-03-21T17:48:21.704Z,70.83
2023-03-21T17:50:50.941Z,70.99
2023-03-21T17:53:20.409Z,70.91
2023-03-21T17:55:51.894Z,71.48
2023-03-21T17:58:22.142Z,71.08
2023-03-21T18:00:51.003Z,71.42
2023-03-21T18:03:22.967Z,71.25
2023-03-21T18:05:55.493Z,71.38
2023-03-21T18:08:24.545Z,71.93
2023-03-21T18:10:54.760Z,71.84
2023-03-21T18:13:24.009Z,71.70
2023-03-21T18:15:53.729Z,71.78
2023-03-21T18:18:22.694Z,72.22
2023-03-21T18:20:54.467Z,72.08
2023-03-21T18:23:24.173Z,72.24
2023-03-21T18:25:57.991Z,72.32
2023-03-21T18:28:28.025Z,72.58
2023-03-21T18:31:12.683Z,72.67
2023-03-21T18:33:48.097Z,72.54
2023-03-21T18:36:25.357Z,72.85
2023-03-21T18:39:05.184Z,72.35
2023-03-21T18:41:36.488Z,72.49
2023-03-21T18:44:23.626Z,72.68
2023-03-21T18:46:55.425Z,72.64
2023-03-21T18:50:05.857Z,72.69
2023-03-21T18:52:18.984Z,72.54
2023-03-21T18:54:49.470Z,72.43
2023-03-21T18:57:38.698Z,72.86
2023-03-21T19:00:13.891Z,72.91
2023-03-21T19:03:13.066Z,73.08
2023-03-21T19:05:50.981Z,72.76
2023-03-21T19:08:23.797Z,72.73
2023-03-21T19:10:59.574Z,73.07
2023-03-21T19:13:33.668Z,73.12
2023-03-21T19:16:05.669Z,72.85
2023-03-21T19:18:53.430Z,72.86
2023-03-21T19:21:27.724Z,72.81
2023-03-21T19:24:29.316Z,73.02
2023-03-21T19:26:58.658Z,73.12
2023-03-21T19:29:29.752Z,73.08
2023-03-21T19:32:04.457Z,73.21
2023-03-21T19:34:35.198Z,73.17
2023-03-21T19:37:05.958Z,72.97
2023-03-21T19:39:39.190Z,72.93
2023-03-21T19:42:22.712Z,72.98
2023-03-21T19:44:54.358Z,73.28
2023-03-21T19:47:32.828Z,73.35
2023-03-21T19:50:43.960Z,73.52
2023-03-21T19:52:59.058Z,73.55
2023-03-21T19:55:35.402Z,73.60
2023-03-21T19:58:09.375Z,73.59
2023-03-21T20:00:41.146Z,73.21
2023-03-21T20:03:22.443Z,73.00
2023-03-21T20:06:03.318Z,73.07
2023-03-21T20:08:58.031Z,73.28
2023-03-21T20:11:28.875Z,73.25
2023-03-21T20:14:03.485Z,73.25
2023-03-21T20:16:34.733Z,73.35
2023-03-21T20:19:09.232Z,72.92
2023-03-21T20:21:48.528Z,72.86
2023-03-21T20:24:27.282Z,73.48
2023-03-21T20:27:00.331Z,73.98
2023-03-21T20:32:21.657Z,73.47
2023-03-21T20:35:02.645Z,73.62
2023-03-21T20:37:45.992Z,73.54
2023-03-21T20:40:18.375Z,73.64
2023-03-21T20:42:50.691Z,73.93
2023-03-21T20:45:22.040Z,73.80
2023-03-21T20:47:58.103Z,73.65
2023-03-21T20:50:33.083Z,73.99
2023-03-21T20:53:07.279Z,73.98
2023-03-21T20:55:39.932Z,74.13
2023-03-21T20:58:36.738Z,74.08
2023-03-21T21:01:04.874Z,74.14
2023-03-21T21:03:39.261Z,74.12
2023-03-21T21:06:15.126Z,73.83
2023-03-21T21:08:47.703Z,73.76
2023-03-21T21:12:04.742Z,73.98
2023-03-21T21:14:08.605Z,74.17
2023-03-21T21:16:41.329Z,74.40
2023-03-21T21:19:10.357Z,74.92
2023-03-21T21:21:39.478Z,74.89
2023-03-21T21:24:10.983Z,74.87
2023-03-21T21:26:45.901Z,74.79
2023-03-21T21:29:16.776Z,74.70
2023-03-21T21:31:48.483Z,74.65
2023-03-21T21:34:18.427Z,74.58
2023-03-21T21:36:47.651Z,74.64
2023-03-21T21:39:16.602Z,74.64
2023-03-21T21:41:45.571Z,74.72
2023-03-21T21:44:14.804Z,74.54
2023-03-21T21:46:43.631Z,74.46
2023-03-21T21:49:12.415Z,74.27
2023-03-21T21:51:41.466Z,74.44
2023-03-21T21:54:10.832Z,74.52
2023-03-21T21:56:39.602Z,74.63
2023-03-21T21:59:08.615Z,74.64
2023-03-21T22:01:38.227Z,74.72
2023-03-21T22:04:07.903Z,75.17
2023-03-21T22:06:36.738Z,75.38
2023-03-21T22:09:06.570Z,75.38
2023-03-21T22:11:35.485Z,75.02
2023-03-21T22:14:04.474Z,74.82
2023-03-21T22:16:33.547Z,74.56
2023-03-21T22:19:02.845Z,74.88
2023-03-21T22:21:31.680Z,75.11
2023-03-21T22:24:01.092Z,75.08
2023-03-21T22:26:30.093Z,74.92
2023-03-21T22:28:59.561Z,75.00
2023-03-21T22:31:28.600Z,75.10
2023-03-21T22:33:57.536Z,75.00
2023-03-21T22:36:26.778Z,75.14
2023-03-21T22:38:56.042Z,75.21
2023-03-21T22:41:24.965Z,74.98
2023-03-21T22:43:53.963Z,74.98
2023-03-21T22:46:23.163Z,74.95
2023-03-21T22:48:52.028Z,75.03
2023-03-21T22:51:21.473Z,75.48
2023-03-21T22:53:50.344Z,75.52
2023-03-21T22:56:19.191Z,75.39
2023-03-21T22:58:48.147Z,75.24
2023-03-21T23:01:17.034Z,75.10
2023-03-21T23:03:46.022Z,75.46
2023-03-21T23:06:14.974Z,75.51
2023-03-21T23:08:43.826Z,75.29
2023-03-21T23:11:12.791Z,75.00
2023-03-21T23:13:41.719Z,74.81
2023-03-21T23:16:11.319Z,74.98
2023-03-21T23:18:40.364Z,74.93
2023-03-21T23:21:12.774Z,75.03
2023-03-21T23:23:43.448Z,75.14
2023-03-21T23:26:12.818Z,75.21
2023-03-21T23:28:42.103Z,74.72
2023-03-21T23:31:13.254Z,74.27
2023-03-21T23:33:42.435Z,74.59
2023-03-21T23:36:14.219Z,75.04
2023-03-21T23:38:43.978Z,75.12
2023-03-21T23:41:14.775Z,75.44
2023-03-21T23:43:44.103Z,75.43
2023-03-21T23:46:13.871Z,75.39
2023-03-21T23:48:43.461Z,75.46
2023-03-21T23:51:14.468Z,75.76
2023-03-21T23:53:44.532Z,76.05
2023-03-21T23:56:15.692Z,76.10
2023-03-21T23:58:44.615Z,76.05
